หน้าหลัก
METAR-TAF:

METAR-TAF

ท่าอากาศยาน :

Grise Fiord, นูนาวุต, แคนาดา

ละติจูด: 76-25N, ลองจิจูด: 082-54W, ความสูง: 45 ม.

การสังเกตสภาพอากาศปัจจุบัน

รายงานได้ทำขึ้นเมื่อ 12 ชั่วโมงและ 45 นาทีที่แล้ว ณ เวลา 20:00 UTC
ลม 4 นอตจากตะวันออกเฉียงใต้
อุณหภูมิ -17°C
ความชื้น 71%
ความกดอากาศ 1018 hPa
ทัศนวิสัย: 24.1 กม.
มีเมฆน้อยที่ความสูง 2500 ฟุต
มีเมฆน้อยที่ความสูง 3500 ฟุต
มีเมฆน้อยที่ความสูง 5500 ฟุต

METAR: CWGZ 182000Z 13004KT 15SM FEW025 FEW035 FEW055 M17/M21 A3005 RMK SC1SC1SC1 SC TR VIS S 6 SW 7 LAST STFD OBS/NXT OBS 191200Z SLP184

เวลา: 04:45 (08:45 UTC)


TAF: หายไป

สังเกตการณ์สภาพอากาศและพยากรณ์อากาศของสนามบินมากกว่า 4000 แห่ง (รายงาน METAR และ TAF).

สถานีที่ดูได้จะแสดงไว้ด้วยจุดสีเหลืองและสีแดงบนแผนที่.

เลื่อนเมาส์ไปเหนือจุดเพื่อดูชื่อสถานี.

แล้วคลิกเพื่อดูสังเกตการณ์และการพยากรณ์สภาพอากาศ.

ในการเปลี่ยนแผนที่: คลิกที่ปุ่มสีเขียวที่มีกากบาทสีดำเพื่อซูมเข้า; ที่ปุ่มสีเขียวที่มีขีดเพื่อซูมออก; หรือที่ลูกศรสีเขียวเพื่อไปยังแผนที่ที่อยู่ติดกัน.


METAR-TAF: